createdAt,value
2023-05-15T00:02:24.879Z,78.90
2023-05-15T00:04:51.732Z,78.90
2023-05-15T00:07:18.755Z,79.50
2023-05-15T00:09:45.590Z,79.30
2023-05-15T00:12:12.341Z,79.10
2023-05-15T00:14:39.196Z,78.80
2023-05-15T00:17:06.382Z,79.00
2023-05-15T00:19:33.204Z,78.90
2023-05-15T00:21:59.935Z,79.20
2023-05-15T00:24:26.686Z,79.20
2023-05-15T00:26:53.462Z,79.90
2023-05-15T00:29:20.309Z,79.70
2023-05-15T00:31:47.184Z,81.00
2023-05-15T00:34:13.946Z,81.30
2023-05-15T00:36:40.764Z,81.20
2023-05-15T00:39:07.579Z,81.20
2023-05-15T00:41:35.519Z,81.70
2023-05-15T00:44:03.062Z,81.40
2023-05-15T00:46:32.516Z,82.30
2023-05-15T00:49:00.588Z,82.40
2023-05-15T00:51:27.416Z,83.00
2023-05-15T00:53:54.994Z,83.00
2023-05-15T00:56:22.326Z,82.20
2023-05-15T00:58:53.970Z,81.80
2023-05-15T01:01:20.822Z,82.20
2023-05-15T01:03:47.817Z,82.70
2023-05-15T01:06:14.652Z,82.30
2023-05-15T01:08:46.875Z,83.20
2023-05-15T01:11:15.626Z,81.80
2023-05-15T01:13:42.942Z,82.40
2023-05-15T01:16:10.859Z,82.00
2023-05-15T01:21:36.793Z,82.50
2023-05-15T01:24:15.686Z,82.80
2023-05-15T01:27:21.561Z,82.30
2023-05-15T01:30:16.647Z,82.00
2023-05-15T01:33:06.979Z,81.80
2023-05-15T01:35:55.071Z,82.20
2023-05-15T01:38:33.498Z,82.30
2023-05-15T01:41:23.120Z,83.40
2023-05-15T01:43:56.909Z,82.30
2023-05-15T01:46:25.610Z,83.20
2023-05-15T01:48:53.459Z,82.60
2023-05-15T01:51:22.346Z,83.50
2023-05-15T01:53:50.461Z,83.20
2023-05-15T01:56:19.927Z,83.70
2023-05-15T01:58:48.244Z,84.00
2023-05-15T02:01:17.807Z,83.30
2023-05-15T02:03:46.204Z,83.90
2023-05-15T02:06:14.168Z,83.60
2023-05-15T02:08:42.914Z,82.80
2023-05-15T02:11:10.352Z,81.70
2023-05-15T02:13:38.286Z,81.90
2023-05-15T02:16:05.485Z,81.80
2023-05-15T02:18:32.473Z,81.30
2023-05-15T02:21:01.122Z,82.10
2023-05-15T02:23:27.868Z,81.70
2023-05-15T02:26:16.727Z,82.00
2023-05-15T02:28:50.282Z,81.50
2023-05-15T02:31:40.956Z,82.00
2023-05-15T02:34:32.737Z,81.60
2023-05-15T02:37:01.873Z,82.00
2023-05-15T02:39:30.029Z,81.90
2023-05-15T02:41:57.363Z,82.20
2023-05-15T02:44:26.125Z,82.80
2023-05-15T02:46:54.082Z,83.90
2023-05-15T02:49:22.015Z,83.20
2023-05-15T02:51:48.901Z,84.30
2023-05-15T02:54:15.830Z,82.70
2023-05-15T02:56:42.812Z,83.40
2023-05-15T02:59:09.695Z,83.50
2023-05-15T03:01:36.490Z,83.10
2023-05-15T03:04:03.490Z,82.80
2023-05-15T03:06:31.647Z,83.50
2023-05-15T03:08:58.409Z,83.80
2023-05-15T03:11:25.218Z,83.10
2023-05-15T03:13:52.041Z,83.10
2023-05-15T03:16:18.850Z,83.40
2023-05-15T03:18:46.481Z,84.80
2023-05-15T03:21:13.553Z,83.90
2023-05-15T03:23:40.501Z,84.70
2023-05-15T03:26:07.359Z,85.00
2023-05-15T03:28:34.113Z,85.40
2023-05-15T03:31:00.916Z,85.70
2023-05-15T03:33:27.685Z,84.90
2023-05-15T03:35:54.421Z,85.20
2023-05-15T03:38:21.250Z,85.10
2023-05-15T03:40:50.262Z,85.40
2023-05-15T03:43:17.825Z,86.30
2023-05-15T03:45:44.582Z,86.10
2023-05-15T03:48:11.343Z,86.30
2023-05-15T03:50:39.189Z,86.80
2023-05-15T03:53:06.182Z,86.10
2023-05-15T03:55:33.175Z,86.50
2023-05-15T03:58:00.076Z,86.60
2023-05-15T04:00:27.133Z,86.90
2023-05-15T04:02:54.127Z,86.50
2023-05-15T04:05:21.995Z,87.10
2023-05-15T04:07:48.899Z,86.60
2023-05-15T04:10:15.714Z,87.20
2023-05-15T04:12:42.491Z,87.60
2023-05-15T04:15:18.392Z,87.80
2023-05-15T04:17:46.777Z,87.50
2023-05-15T04:20:15.447Z,87.90
2023-05-15T04:22:43.508Z,87.80
2023-05-15T04:25:12.025Z,87.80
2023-05-15T04:27:39.339Z,88.70
2023-05-15T04:30:07.125Z,88.90
2023-05-15T04:32:34.714Z,88.60
2023-05-15T04:35:05.694Z,87.90
2023-05-15T04:37:32.626Z,88.30
2023-05-15T04:40:00.169Z,88.00
2023-05-15T04:42:27.018Z,88.60
2023-05-15T04:44:53.917Z,88.50
2023-05-15T04:47:20.842Z,88.80
2023-05-15T04:49:50.608Z,90.60
2023-05-15T04:52:17.868Z,90.80
2023-05-15T04:54:44.611Z,90.80
2023-05-15T04:57:11.353Z,91.40
2023-05-15T04:59:38.088Z,91.00
2023-05-15T05:02:05.111Z,90.90
2023-05-15T05:04:31.949Z,91.80
2023-05-15T05:06:58.718Z,89.30
2023-05-15T05:09:25.635Z,90.00
2023-05-15T05:11:52.377Z,89.40
2023-05-15T05:14:19.647Z,89.90
2023-05-15T05:16:46.447Z,88.20
2023-05-15T05:19:13.325Z,88.30
2023-05-15T05:21:40.170Z,88.60
2023-05-15T05:24:06.956Z,88.10
2023-05-15T05:26:33.783Z,87.30
2023-05-15T05:29:00.833Z,87.70
2023-05-15T05:31:30.406Z,86.80
2023-05-15T05:33:57.266Z,86.90
2023-05-15T05:36:24.051Z,87.30
2023-05-15T05:38:51.040Z,86.50
2023-05-15T05:41:17.783Z,86.10
2023-05-15T05:43:44.570Z,85.10
2023-05-15T05:46:11.464Z,85.80
2023-05-15T05:48:38.265Z,85.90
2023-05-15T05:51:05.117Z,86.20
2023-05-15T05:53:31.943Z,85.40
2023-05-15T05:55:58.714Z,86.60
2023-05-15T05:58:26.444Z,84.50
2023-05-15T06:00:54.201Z,85.20
2023-05-15T06:03:21.526Z,85.60
2023-05-15T06:05:48.721Z,85.80
2023-05-15T06:08:15.764Z,83.60
2023-05-15T06:10:42.537Z,84.10
2023-05-15T06:13:10.483Z,82.70
2023-05-15T06:15:37.664Z,82.20
2023-05-15T06:18:04.642Z,80.10
2023-05-15T06:20:33.679Z,77.90
2023-05-15T06:23:00.572Z,76.40
2023-05-15T06:25:27.317Z,75.70
2023-05-15T06:27:54.032Z,75.50
2023-05-15T06:30:20.723Z,73.70
2023-05-15T06:32:47.566Z,70.80
2023-05-15T06:35:14.335Z,71.40
2023-05-15T06:37:41.029Z,72.50
2023-05-15T06:40:08.460Z,75.20
2023-05-15T06:42:35.539Z,74.60
2023-05-15T06:45:02.345Z,73.20
2023-05-15T06:47:29.135Z,71.60
2023-05-15T06:49:55.996Z,72.60
2023-05-15T06:52:22.853Z,72.40
2023-05-15T06:54:49.688Z,71.20
2023-05-15T06:57:16.480Z,68.70
2023-05-15T06:59:43.296Z,71.90
2023-05-15T07:02:10.134Z,67.90
2023-05-15T07:04:36.996Z,67.80
2023-05-15T07:07:03.857Z,67.30
2023-05-15T07:09:31.039Z,66.40
2023-05-15T07:11:57.836Z,64.80
2023-05-15T07:14:24.635Z,64.90
2023-05-15T07:16:51.466Z,62.80
2023-05-15T07:19:20.863Z,64.10
2023-05-15T07:21:47.889Z,64.10
2023-05-15T07:24:14.758Z,64.70
2023-05-15T07:26:50.620Z,62.50
2023-05-15T07:29:25.333Z,64.30
2023-05-15T07:31:52.228Z,63.70
2023-05-15T07:34:19.096Z,62.90
2023-05-15T07:36:45.917Z,59.80
2023-05-15T07:39:13.287Z,60.70
2023-05-15T07:41:40.149Z,63.00
2023-05-15T07:44:06.967Z,60.00
2023-05-15T07:46:34.458Z,61.50
2023-05-15T07:49:01.255Z,60.50
2023-05-15T07:51:28.028Z,58.80
2023-05-15T07:53:54.767Z,59.10
2023-05-15T07:56:21.602Z,57.90
2023-05-15T07:58:48.631Z,59.90
2023-05-15T08:01:16.066Z,62.40
2023-05-15T08:03:43.145Z,64.00
2023-05-15T08:06:09.953Z,62.10
2023-05-15T08:08:36.831Z,60.80
2023-05-15T08:11:03.623Z,62.00
2023-05-15T08:13:30.590Z,61.50
2023-05-15T08:15:57.432Z,59.70
2023-05-15T08:18:24.408Z,56.70
2023-05-15T08:20:52.231Z,56.00
2023-05-15T08:23:19.171Z,54.10
2023-05-15T08:25:46.129Z,54.50
2023-05-15T08:28:12.931Z,57.60
2023-05-15T08:30:39.790Z,59.30
2023-05-15T08:33:06.765Z,57.20
2023-05-15T08:35:33.827Z,57.40
2023-05-15T08:38:00.770Z,58.40
2023-05-15T08:43:03.660Z,55.60
2023-05-15T08:45:31.558Z,55.60
2023-05-15T08:48:00.486Z,53.90
2023-05-15T08:50:28.645Z,51.00
2023-05-15T08:52:58.390Z,52.40
2023-05-15T08:55:25.869Z,52.10
2023-05-15T08:57:54.425Z,50.20
2023-05-15T09:00:22.411Z,50.90
2023-05-15T09:02:49.317Z,50.80
2023-05-15T09:05:16.180Z,50.20
2023-05-15T09:07:44.966Z,51.80
2023-05-15T09:10:13.605Z,48.70
2023-05-15T09:12:47.129Z,48.10
2023-05-15T09:15:22.555Z,46.90
2023-05-15T09:17:50.723Z,47.50
2023-05-15T09:20:33.687Z,48.10
2023-05-15T09:23:02.927Z,45.80
2023-05-15T09:25:40.767Z,46.10
2023-05-15T09:28:10.686Z,48.50
2023-05-15T09:30:38.835Z,47.00
2023-05-15T09:33:05.791Z,45.80
2023-05-15T09:35:40.956Z,45.40
2023-05-15T09:38:12.624Z,43.30
2023-05-15T09:40:40.929Z,44.20
2023-05-15T09:43:11.704Z,44.50
2023-05-15T09:45:38.553Z,44.70
2023-05-15T09:48:06.740Z,44.70
2023-05-15T09:50:38.319Z,42.80
2023-05-15T09:53:05.992Z,44.30
2023-05-15T09:55:34.516Z,42.60
2023-05-15T09:58:09.814Z,42.90
2023-05-15T10:00:48.423Z,44.40
2023-05-15T10:03:19.058Z,44.60
2023-05-15T10:05:46.020Z,42.80
2023-05-15T10:08:13.038Z,44.30
2023-05-15T10:10:39.936Z,44.10
2023-05-15T10:13:08.263Z,41.90
2023-05-15T10:15:35.647Z,41.60
2023-05-15T10:18:04.981Z,42.00
2023-05-15T10:20:35.581Z,43.10
2023-05-15T10:23:06.317Z,41.20
2023-05-15T10:25:41.202Z,38.70
2023-05-15T10:28:08.973Z,40.10
2023-05-15T10:30:36.693Z,38.00
2023-05-15T10:33:05.444Z,39.10
2023-05-15T10:35:32.905Z,40.50
2023-05-15T10:38:00.437Z,41.10
2023-05-15T10:40:29.338Z,42.40
2023-05-15T10:42:59.516Z,42.10
2023-05-15T10:45:27.070Z,42.40
2023-05-15T10:47:54.905Z,42.80
2023-05-15T10:50:21.747Z,41.50
2023-05-15T10:52:52.459Z,42.50
2023-05-15T10:55:19.514Z,42.70
2023-05-15T10:57:47.389Z,43.50
2023-05-15T11:00:24.057Z,40.40
2023-05-15T11:02:57.013Z,40.80
2023-05-15T11:05:24.621Z,41.20
2023-05-15T11:08:18.374Z,43.10
2023-05-15T11:10:45.271Z,44.20
2023-05-15T11:13:12.200Z,46.50
2023-05-15T11:15:46.948Z,43.90
2023-05-15T11:18:14.488Z,42.80
2023-05-15T11:21:02.671Z,46.00
2023-05-15T11:23:37.457Z,43.70
2023-05-15T11:26:05.969Z,43.90
2023-05-15T11:28:42.521Z,44.20
2023-05-15T11:31:09.440Z,43.50
2023-05-15T11:33:38.684Z,42.60
2023-05-15T11:36:06.960Z,42.20
2023-05-15T11:38:39.668Z,41.00
2023-05-15T11:41:18.642Z,39.60
2023-05-15T11:43:46.212Z,42.00
2023-05-15T11:46:14.067Z,41.60
2023-05-15T11:48:47.612Z,39.40
2023-05-15T11:51:21.791Z,38.10
2023-05-15T11:53:54.129Z,37.50
2023-05-15T11:56:22.971Z,37.20
2023-05-15T11:58:58.763Z,37.00
2023-05-15T12:01:26.133Z,38.80
2023-05-15T12:03:54.426Z,38.70
2023-05-15T12:06:22.045Z,35.20
2023-05-15T12:08:53.355Z,35.40
2023-05-15T12:11:24.836Z,36.10
2023-05-15T12:13:55.675Z,38.60
2023-05-15T12:16:26.608Z,38.10
2023-05-15T12:18:53.792Z,40.80
2023-05-15T12:21:20.885Z,42.50
2023-05-15T12:24:07.054Z,44.50
2023-05-15T12:26:35.050Z,46.30
2023-05-15T12:29:02.217Z,47.70
2023-05-15T12:31:29.784Z,49.20
2023-05-15T12:33:56.966Z,55.70
2023-05-15T12:36:23.716Z,64.20
2023-05-15T12:38:50.644Z,68.50
2023-05-15T12:41:19.942Z,71.10
2023-05-15T12:43:46.722Z,70.70
2023-05-15T12:46:15.459Z,68.10
2023-05-15T12:48:42.434Z,68.50
2023-05-15T12:51:09.459Z,74.30
2023-05-15T12:53:39.704Z,74.40
2023-05-15T12:56:07.726Z,73.00
2023-05-15T12:58:35.492Z,77.80
2023-05-15T13:01:03.466Z,74.70
2023-05-15T13:03:31.930Z,73.50
2023-05-15T13:05:58.964Z,73.00
2023-05-15T13:08:25.891Z,73.60
2023-05-15T13:11:00.066Z,72.90
2023-05-15T13:13:47.869Z,74.80
2023-05-15T13:16:29.454Z,74.90
2023-05-15T13:18:59.823Z,76.70
2023-05-15T13:21:26.576Z,76.50
2023-05-15T13:23:53.482Z,77.10
2023-05-15T13:26:20.772Z,75.10
2023-05-15T13:28:47.631Z,77.70
2023-05-15T13:31:14.532Z,78.90
2023-05-15T13:33:41.736Z,82.30
2023-05-15T13:36:08.996Z,82.90
2023-05-15T13:38:35.828Z,82.00
2023-05-15T13:41:03.612Z,85.00
2023-05-15T13:43:30.438Z,83.90
2023-05-15T13:45:57.223Z,83.10
2023-05-15T13:48:23.955Z,82.10
2023-05-15T13:50:51.090Z,83.10
2023-05-15T13:53:18.169Z,83.80
2023-05-15T13:55:45.825Z,83.60
2023-05-15T13:58:13.394Z,83.40
2023-05-15T14:00:42.437Z,83.80
2023-05-15T14:03:09.625Z,82.90
2023-05-15T14:05:37.236Z,82.90
2023-05-15T14:08:04.430Z,84.00
2023-05-15T14:10:31.386Z,85.10
2023-05-15T14:13:00.083Z,82.90
2023-05-15T14:15:27.618Z,85.40
2023-05-15T14:17:54.416Z,85.80
2023-05-15T14:20:21.230Z,83.70
2023-05-15T14:22:48.009Z,83.60
2023-05-15T14:25:14.840Z,82.90
2023-05-15T14:27:41.613Z,80.40
2023-05-15T14:30:09.152Z,77.30
2023-05-15T14:32:36.036Z,76.10
2023-05-15T14:35:03.109Z,71.80
2023-05-15T14:37:29.913Z,71.30
2023-05-15T14:39:56.765Z,71.20
2023-05-15T14:42:23.585Z,70.60
2023-05-15T14:44:50.728Z,69.00
2023-05-15T14:47:18.525Z,69.00
2023-05-15T14:49:45.275Z,67.20
2023-05-15T14:52:12.366Z,65.10
2023-05-15T14:54:39.979Z,66.60
2023-05-15T14:57:07.697Z,65.40
2023-05-15T14:59:34.772Z,64.00
2023-05-15T15:02:01.831Z,61.40
2023-05-15T15:04:33.930Z,59.30
2023-05-15T15:07:03.804Z,61.10
2023-05-15T15:09:30.891Z,59.10
2023-05-15T15:11:57.736Z,60.30
2023-05-15T15:14:24.496Z,58.50
2023-05-15T15:16:51.297Z,59.00
2023-05-15T15:19:20.131Z,58.40
2023-05-15T15:21:47.275Z,56.90
2023-05-15T15:24:14.130Z,58.20
2023-05-15T15:26:41.296Z,57.80
2023-05-15T15:29:08.145Z,56.50
2023-05-15T15:31:34.990Z,56.60
2023-05-15T15:34:04.415Z,56.70
2023-05-15T15:36:32.458Z,58.60
2023-05-15T15:38:59.200Z,57.70
2023-05-15T15:41:25.975Z,58.20
2023-05-15T15:43:53.736Z,58.60
2023-05-15T15:46:20.696Z,59.00
2023-05-15T15:48:48.196Z,57.50
2023-05-15T15:51:14.978Z,58.90
2023-05-15T15:53:41.763Z,58.50
2023-05-15T15:56:08.844Z,56.30
2023-05-15T15:58:35.801Z,55.50
2023-05-15T16:01:03.239Z,55.80
2023-05-15T16:03:31.060Z,55.80
2023-05-15T16:05:59.909Z,55.80
2023-05-15T16:08:27.234Z,54.30
2023-05-15T16:10:55.514Z,54.30
2023-05-15T16:13:22.391Z,53.80
2023-05-15T16:15:49.257Z,54.20
2023-05-15T16:18:16.653Z,52.80
2023-05-15T16:20:43.782Z,53.30
2023-05-15T16:23:14.091Z,53.20
2023-05-15T16:25:41.376Z,53.20
2023-05-15T16:28:09.916Z,53.40
2023-05-15T16:30:47.994Z,55.00
2023-05-15T16:33:17.460Z,55.10
2023-05-15T16:35:44.671Z,55.40
2023-05-15T16:38:11.628Z,56.30
2023-05-15T16:40:38.400Z,56.00
2023-05-15T16:43:05.694Z,56.40
2023-05-15T16:45:32.677Z,57.60
2023-05-15T16:47:59.438Z,57.40
2023-05-15T16:50:26.672Z,57.50
2023-05-15T16:52:53.699Z,55.30
2023-05-15T16:55:20.559Z,58.00
2023-05-15T16:57:47.788Z,56.50
2023-05-15T17:00:15.965Z,56.00
2023-05-15T17:02:43.815Z,57.20
2023-05-15T17:05:11.532Z,57.80
2023-05-15T17:07:39.035Z,58.10
2023-05-15T17:10:07.130Z,57.50
2023-05-15T17:12:34.811Z,57.20
2023-05-15T17:15:02.543Z,57.60
2023-05-15T17:17:29.405Z,59.30
2023-05-15T17:19:57.166Z,59.20
2023-05-15T17:22:24.336Z,59.90
2023-05-15T17:24:52.172Z,60.30
2023-05-15T17:27:19.672Z,60.80
2023-05-15T17:29:46.747Z,60.90
2023-05-15T17:32:13.902Z,61.20
2023-05-15T17:35:19.512Z,61.40
2023-05-15T17:37:46.298Z,61.30
2023-05-15T17:40:13.168Z,62.40
2023-05-15T17:42:39.986Z,62.20
2023-05-15T17:45:07.224Z,62.20
2023-05-15T17:47:34.033Z,62.20
2023-05-15T17:50:00.862Z,62.00
2023-05-15T17:52:27.746Z,63.00
2023-05-15T17:54:54.558Z,63.20
2023-05-15T17:57:21.346Z,63.20
2023-05-15T17:59:48.172Z,62.80
2023-05-15T18:02:14.988Z,64.00
2023-05-15T18:04:41.758Z,63.60
2023-05-15T18:07:08.556Z,63.40
2023-05-15T18:09:35.410Z,63.40
2023-05-15T18:12:02.202Z,63.60
2023-05-15T18:14:28.950Z,63.80
2023-05-15T18:16:56.263Z,64.30
2023-05-15T18:19:23.068Z,64.90
2023-05-15T18:21:50.286Z,64.70
2023-05-15T18:24:17.162Z,66.10
2023-05-15T18:26:44.172Z,65.70
2023-05-15T18:29:10.994Z,67.30
2023-05-15T18:31:37.771Z,66.70
2023-05-15T18:34:04.559Z,68.00
2023-05-15T18:36:31.313Z,67.40
2023-05-15T18:38:58.072Z,67.80
2023-05-15T18:41:24.803Z,68.00
2023-05-15T18:43:52.333Z,67.90
2023-05-15T18:46:19.140Z,68.20
2023-05-15T18:48:45.910Z,68.20
2023-05-15T18:51:12.732Z,68.10
2023-05-15T18:53:39.462Z,68.00
2023-05-15T18:56:06.331Z,68.20
2023-05-15T18:58:33.074Z,67.40
2023-05-15T19:01:00.168Z,68.10
2023-05-15T19:03:27.111Z,67.20
2023-05-15T19:05:53.896Z,66.40
2023-05-15T19:08:20.625Z,67.10
2023-05-15T19:10:51.099Z,67.10
2023-05-15T19:13:18.854Z,67.10
2023-05-15T19:15:52.415Z,67.00
2023-05-15T19:18:19.685Z,66.40
2023-05-15T19:20:50.484Z,67.90
2023-05-15T19:23:17.489Z,67.30
2023-05-15T19:25:45.067Z,67.60
2023-05-15T19:28:12.946Z,67.70
2023-05-15T19:30:39.726Z,67.60
2023-05-15T19:33:06.504Z,68.80
2023-05-15T19:35:35.875Z,68.20
2023-05-15T19:38:04.038Z,69.40
2023-05-15T19:40:30.747Z,69.40
2023-05-15T19:42:57.580Z,69.90
2023-05-15T19:45:24.403Z,69.40
2023-05-15T19:47:51.212Z,69.90
2023-05-15T19:50:18.669Z,69.80
2023-05-15T19:52:45.761Z,71.20
2023-05-15T19:55:12.807Z,72.80
2023-05-15T19:57:44.789Z,76.30
2023-05-15T20:00:12.522Z,75.50
2023-05-15T20:02:41.311Z,76.20
2023-05-15T20:05:08.806Z,77.50
2023-05-15T20:07:36.022Z,77.20
2023-05-15T20:10:02.805Z,76.90
2023-05-15T20:12:29.597Z,75.80
2023-05-15T20:14:56.299Z,76.30
2023-05-15T20:17:23.340Z,76.60
2023-05-15T20:19:50.901Z,77.00
2023-05-15T20:22:17.797Z,76.80
2023-05-15T20:24:45.801Z,77.30
2023-05-15T20:27:12.624Z,77.60
2023-05-15T20:29:39.394Z,78.60
2023-05-15T20:32:06.497Z,79.30
2023-05-15T20:34:34.396Z,78.20
2023-05-15T20:37:02.673Z,78.10
2023-05-15T20:39:29.409Z,78.80
2023-05-15T20:41:56.554Z,79.50
2023-05-15T20:44:23.322Z,79.40
2023-05-15T20:46:50.185Z,79.70
2023-05-15T20:49:16.939Z,79.90
2023-05-15T20:51:44.508Z,79.40
2023-05-15T20:54:11.501Z,79.50
2023-05-15T20:56:38.409Z,80.20
2023-05-15T20:59:05.166Z,80.80
2023-05-15T21:01:32.261Z,81.40
2023-05-15T21:03:59.130Z,82.40
2023-05-15T21:06:25.949Z,82.50
2023-05-15T21:08:52.849Z,83.20
2023-05-15T21:11:19.688Z,83.20
2023-05-15T21:13:46.505Z,82.80
2023-05-15T21:16:13.291Z,83.30
2023-05-15T21:18:40.146Z,83.10
2023-05-15T21:21:09.657Z,83.30
2023-05-15T21:23:36.740Z,83.40
2023-05-15T21:26:03.942Z,83.10
2023-05-15T21:28:30.837Z,83.20
2023-05-15T21:30:57.649Z,83.50
2023-05-15T21:33:24.601Z,84.10
2023-05-15T21:35:51.523Z,83.50
2023-05-15T21:38:18.693Z,83.40
2023-05-15T21:40:45.446Z,83.60
2023-05-15T21:43:12.206Z,84.00
2023-05-15T21:45:39.020Z,83.90
2023-05-15T21:48:05.979Z,84.50
2023-05-15T21:50:32.802Z,83.60
2023-05-15T21:52:59.925Z,85.20
2023-05-15T21:55:26.637Z,84.60
2023-05-15T21:57:53.390Z,84.80
2023-05-15T22:00:20.867Z,85.20
2023-05-15T22:02:47.766Z,85.30
2023-05-15T22:05:14.869Z,85.60
2023-05-15T22:07:41.847Z,85.90
2023-05-15T22:10:09.258Z,86.50
2023-05-15T22:12:36.148Z,86.70
2023-05-15T22:15:02.958Z,87.40
2023-05-15T22:17:30.474Z,87.60
2023-05-15T22:20:08.139Z,87.90
2023-05-15T22:22:35.911Z,88.40
2023-05-15T22:25:02.793Z,88.30
2023-05-15T22:27:29.698Z,88.50
2023-05-15T22:29:56.495Z,88.50
2023-05-15T22:32:23.496Z,88.60
2023-05-15T22:34:50.294Z,88.90
2023-05-15T22:37:17.012Z,89.10
2023-05-15T22:39:44.164Z,89.30
2023-05-15T22:42:11.001Z,89.40
2023-05-15T22:44:37.884Z,89.10
2023-05-15T22:47:04.949Z,89.70
2023-05-15T22:49:31.757Z,88.80
2023-05-15T22:51:58.678Z,89.60
2023-05-15T22:54:25.610Z,89.60
2023-05-15T22:56:53.632Z,89.70
2023-05-15T22:59:21.202Z,89.50
2023-05-15T23:01:49.170Z,89.50
2023-05-15T23:04:17.444Z,89.90
2023-05-15T23:06:44.502Z,89.80
2023-05-15T23:09:11.696Z,90.10
2023-05-15T23:11:38.755Z,90.10
2023-05-15T23:14:05.710Z,90.30
2023-05-15T23:16:32.613Z,90.20
2023-05-15T23:18:59.673Z,90.30
2023-05-15T23:21:28.491Z,90.40
2023-05-15T23:23:55.310Z,90.60
2023-05-15T23:26:22.103Z,90.80
2023-05-15T23:28:48.832Z,90.80
2023-05-15T23:31:15.758Z,90.80
2023-05-15T23:33:42.654Z,91.20
2023-05-15T23:36:09.483Z,91.10
2023-05-15T23:38:36.288Z,91.30
2023-05-15T23:41:03.635Z,91.20
2023-05-15T23:43:30.434Z,91.50
2023-05-15T23:45:57.221Z,91.50
2023-05-15T23:48:23.992Z,91.60
2023-05-15T23:50:52.293Z,91.50
2023-05-15T23:53:19.274Z,91.90
2023-05-15T23:55:46.086Z,91.50
2023-05-15T23:58:12.910Z,91.70
